sensor_id;sensor_type;location;lat;lon;timestamp;P1;durP1;ratioP1;P2;durP2;ratioP2
11771;SDS011;12556;55.748;13.194;2023-05-10T00:02:00;4.67;;;3.10;;
11771;SDS011;12556;55.748;13.194;2023-05-10T00:04:27;6.57;;;2.83;;
11771;SDS011;12556;55.748;13.194;2023-05-10T00:06:54;5.23;;;3.67;;
11771;SDS011;12556;55.748;13.194;2023-05-10T00:09:21;5.67;;;3.60;;
11771;SDS011;12556;55.748;13.194;2023-05-10T00:11:48;6.17;;;2.70;;
11771;SDS011;12556;55.748;13.194;2023-05-10T00:14:15;4.10;;;3.30;;
11771;SDS011;12556;55.748;13.194;2023-05-10T00:16:43;6.43;;;3.27;;
11771;SDS011;12556;55.748;13.194;2023-05-10T00:19:10;6.63;;;3.50;;
11771;SDS011;12556;55.748;13.194;2023-05-10T00:21:37;3.67;;;3.37;;
11771;SDS011;12556;55.748;13.194;2023-05-10T00:24:04;4.73;;;2.97;;
11771;SDS011;12556;55.748;13.194;2023-05-10T00:26:31;6.03;;;3.87;;
11771;SDS011;12556;55.748;13.194;2023-05-10T00:28:58;3.77;;;3.00;;
11771;SDS011;12556;55.748;13.194;2023-05-10T00:31:25;5.83;;;3.60;;
11771;SDS011;12556;55.748;13.194;2023-05-10T00:33:54;6.60;;;3.60;;
11771;SDS011;12556;55.748;13.194;2023-05-10T00:36:21;5.93;;;3.37;;
11771;SDS011;12556;55.748;13.194;2023-05-10T00:38:48;7.20;;;4.20;;
11771;SDS011;12556;55.748;13.194;2023-05-10T00:41:15;5.27;;;3.70;;
11771;SDS011;12556;55.748;13.194;2023-05-10T00:43:41;7.33;;;3.33;;
11771;SDS011;12556;55.748;13.194;2023-05-10T00:46:08;6.83;;;3.20;;
11771;SDS011;12556;55.748;13.194;2023-05-10T00:48:35;6.00;;;3.10;;
11771;SDS011;12556;55.748;13.194;2023-05-10T00:51:04;6.03;;;3.20;;
11771;SDS011;12556;55.748;13.194;2023-05-10T00:53:31;6.53;;;3.60;;
11771;SDS011;12556;55.748;13.194;2023-05-10T00:56:00;6.30;;;3.30;;
11771;SDS011;12556;55.748;13.194;2023-05-10T00:58:28;5.17;;;3.00;;
11771;SDS011;12556;55.748;13.194;2023-05-10T01:00:56;5.57;;;3.50;;
11771;SDS011;12556;55.748;13.194;2023-05-10T01:03:23;5.60;;;3.30;;
11771;SDS011;12556;55.748;13.194;2023-05-10T01:05:51;3.80;;;3.40;;
11771;SDS011;12556;55.748;13.194;2023-05-10T01:08:19;5.70;;;3.10;;
11771;SDS011;12556;55.748;13.194;2023-05-10T01:10:46;6.40;;;3.40;;
11771;SDS011;12556;55.748;13.194;2023-05-10T01:13:16;5.23;;;3.37;;
11771;SDS011;12556;55.748;13.194;2023-05-10T01:15:55;4.27;;;3.03;;
11771;SDS011;12556;55.748;13.194;2023-05-10T01:18:22;4.63;;;3.30;;
11771;SDS011;12556;55.748;13.194;2023-05-10T01:20:59;5.37;;;2.70;;
11771;SDS011;12556;55.748;13.194;2023-05-10T01:23:39;5.53;;;3.60;;
11771;SDS011;12556;55.748;13.194;2023-05-10T01:26:36;7.57;;;3.53;;
11771;SDS011;12556;55.748;13.194;2023-05-10T01:29:27;3.47;;;3.03;;
11771;SDS011;12556;55.748;13.194;2023-05-10T01:32:22;3.77;;;3.27;;
11771;SDS011;12556;55.748;13.194;2023-05-10T01:34:58;5.07;;;3.60;;
11771;SDS011;12556;55.748;13.194;2023-05-10T01:37:31;5.87;;;3.13;;
11771;SDS011;12556;55.748;13.194;2023-05-10T01:40:13;3.57;;;3.00;;
11771;SDS011;12556;55.748;13.194;2023-05-10T01:42:46;4.80;;;3.60;;
11771;SDS011;12556;55.748;13.194;2023-05-10T01:45:19;4.60;;;3.23;;
11771;SDS011;12556;55.748;13.194;2023-05-10T01:47:53;3.70;;;3.10;;
11771;SDS011;12556;55.748;13.194;2023-05-10T01:50:27;3.70;;;3.40;;
11771;SDS011;12556;55.748;13.194;2023-05-10T01:52:57;6.93;;;3.07;;
11771;SDS011;12556;55.748;13.194;2023-05-10T01:55:26;4.90;;;3.30;;
11771;SDS011;12556;55.748;13.194;2023-05-10T01:57:57;4.53;;;3.57;;
11771;SDS011;12556;55.748;13.194;2023-05-10T02:00:29;4.60;;;3.50;;
11771;SDS011;12556;55.748;13.194;2023-05-10T02:02:58;5.37;;;3.77;;
11771;SDS011;12556;55.748;13.194;2023-05-10T02:05:28;3.43;;;3.10;;
11771;SDS011;12556;55.748;13.194;2023-05-10T02:07:58;4.17;;;3.17;;
11771;SDS011;12556;55.748;13.194;2023-05-10T02:10:27;5.63;;;3.73;;
11771;SDS011;12556;55.748;13.194;2023-05-10T02:12:55;4.57;;;3.33;;
11771;SDS011;12556;55.748;13.194;2023-05-10T02:15:25;3.67;;;3.00;;
11771;SDS011;12556;55.748;13.194;2023-05-10T02:17:54;3.50;;;3.07;;
11771;SDS011;12556;55.748;13.194;2023-05-10T02:20:24;3.20;;;2.90;;
11771;SDS011;12556;55.748;13.194;2023-05-10T02:22:52;3.90;;;3.30;;
11771;SDS011;12556;55.748;13.194;2023-05-10T02:25:22;6.50;;;3.53;;
11771;SDS011;12556;55.748;13.194;2023-05-10T02:27:50;3.70;;;3.13;;
11771;SDS011;12556;55.748;13.194;2023-05-10T02:30:20;5.13;;;3.63;;
11771;SDS011;12556;55.748;13.194;2023-05-10T02:32:47;6.53;;;3.50;;
11771;SDS011;12556;55.748;13.194;2023-05-10T02:35:16;4.90;;;3.30;;
11771;SDS011;12556;55.748;13.194;2023-05-10T02:37:44;5.33;;;3.20;;
11771;SDS011;12556;55.748;13.194;2023-05-10T02:40:13;6.60;;;3.23;;
11771;SDS011;12556;55.748;13.194;2023-05-10T02:42:41;3.73;;;3.33;;
11771;SDS011;12556;55.748;13.194;2023-05-10T02:45:11;4.50;;;3.10;;
11771;SDS011;12556;55.748;13.194;2023-05-10T02:47:40;6.57;;;3.20;;
11771;SDS011;12556;55.748;13.194;2023-05-10T02:50:08;4.63;;;3.47;;
11771;SDS011;12556;55.748;13.194;2023-05-10T02:52:38;4.90;;;4.00;;
11771;SDS011;12556;55.748;13.194;2023-05-10T02:55:09;7.23;;;3.33;;
11771;SDS011;12556;55.748;13.194;2023-05-10T02:57:40;5.50;;;3.17;;
11771;SDS011;12556;55.748;13.194;2023-05-10T03:00:11;4.80;;;3.60;;
11771;SDS011;12556;55.748;13.194;2023-05-10T03:02:38;5.93;;;3.60;;
11771;SDS011;12556;55.748;13.194;2023-05-10T03:05:06;7.70;;;3.63;;
11771;SDS011;12556;55.748;13.194;2023-05-10T03:07:33;5.83;;;3.20;;
11771;SDS011;12556;55.748;13.194;2023-05-10T03:10:00;5.57;;;3.43;;
11771;SDS011;12556;55.748;13.194;2023-05-10T03:12:31;6.13;;;3.60;;
11771;SDS011;12556;55.748;13.194;2023-05-10T03:15:09;7.90;;;3.50;;
11771;SDS011;12556;55.748;13.194;2023-05-10T03:17:48;7.37;;;3.53;;
11771;SDS011;12556;55.748;13.194;2023-05-10T03:20:21;5.00;;;4.13;;
11771;SDS011;12556;55.748;13.194;2023-05-10T03:22:51;6.93;;;3.50;;
11771;SDS011;12556;55.748;13.194;2023-05-10T03:25:22;5.27;;;3.70;;
11771;SDS011;12556;55.748;13.194;2023-05-10T03:27:51;5.23;;;3.53;;
11771;SDS011;12556;55.748;13.194;2023-05-10T03:30:18;4.17;;;3.77;;
11771;SDS011;12556;55.748;13.194;2023-05-10T03:32:46;4.97;;;3.57;;
11771;SDS011;12556;55.748;13.194;2023-05-10T03:35:13;6.93;;;3.90;;
11771;SDS011;12556;55.748;13.194;2023-05-10T03:37:40;6.23;;;3.30;;
11771;SDS011;12556;55.748;13.194;2023-05-10T03:40:08;4.47;;;3.97;;
11771;SDS011;12556;55.748;13.194;2023-05-10T03:42:35;7.10;;;3.33;;
11771;SDS011;12556;55.748;13.194;2023-05-10T03:45:03;6.27;;;3.37;;
11771;SDS011;12556;55.748;13.194;2023-05-10T03:47:31;7.40;;;3.83;;
11771;SDS011;12556;55.748;13.194;2023-05-10T03:49:58;7.10;;;4.00;;
11771;SDS011;12556;55.748;13.194;2023-05-10T03:52:25;6.23;;;3.53;;
11771;SDS011;12556;55.748;13.194;2023-05-10T03:54:51;4.60;;;3.47;;
11771;SDS011;12556;55.748;13.194;2023-05-10T03:57:18;4.73;;;3.50;;
11771;SDS011;12556;55.748;13.194;2023-05-10T03:59:45;8.27;;;4.00;;
11771;SDS011;12556;55.748;13.194;2023-05-10T04:02:14;5.33;;;3.47;;
11771;SDS011;12556;55.748;13.194;2023-05-10T04:04:41;4.40;;;3.23;;
11771;SDS011;12556;55.748;13.194;2023-05-10T04:07:08;3.33;;;3.03;;
11771;SDS011;12556;55.748;13.194;2023-05-10T04:09:35;6.13;;;3.83;;
11771;SDS011;12556;55.748;13.194;2023-05-10T04:12:02;5.97;;;3.60;;
11771;SDS011;12556;55.748;13.194;2023-05-10T04:14:29;5.80;;;3.40;;
11771;SDS011;12556;55.748;13.194;2023-05-10T04:16:56;6.63;;;3.90;;
11771;SDS011;12556;55.748;13.194;2023-05-10T04:19:28;3.93;;;3.30;;
11771;SDS011;12556;55.748;13.194;2023-05-10T04:21:55;6.33;;;4.00;;
11771;SDS011;12556;55.748;13.194;2023-05-10T04:24:22;4.70;;;3.47;;
11771;SDS011;12556;55.748;13.194;2023-05-10T04:26:50;7.70;;;4.00;;
11771;SDS011;12556;55.748;13.194;2023-05-10T04:29:17;4.67;;;3.83;;
11771;SDS011;12556;55.748;13.194;2023-05-10T04:31:44;6.27;;;3.63;;
11771;SDS011;12556;55.748;13.194;2023-05-10T04:34:11;4.93;;;3.60;;
11771;SDS011;12556;55.748;13.194;2023-05-10T04:36:39;5.70;;;3.77;;
11771;SDS011;12556;55.748;13.194;2023-05-10T04:39:06;7.57;;;3.53;;
11771;SDS011;12556;55.748;13.194;2023-05-10T04:41:34;9.20;;;3.90;;
11771;SDS011;12556;55.748;13.194;2023-05-10T04:44:01;4.73;;;3.40;;
11771;SDS011;12556;55.748;13.194;2023-05-10T04:46:28;6.97;;;3.20;;
11771;SDS011;12556;55.748;13.194;2023-05-10T04:48:55;7.33;;;3.60;;
11771;SDS011;12556;55.748;13.194;2023-05-10T04:51:22;6.47;;;3.50;;
11771;SDS011;12556;55.748;13.194;2023-05-10T04:53:50;5.70;;;4.07;;
11771;SDS011;12556;55.748;13.194;2023-05-10T04:56:17;8.10;;;3.73;;
11771;SDS011;12556;55.748;13.194;2023-05-10T04:58:44;7.23;;;3.80;;
11771;SDS011;12556;55.748;13.194;2023-05-10T05:01:11;5.20;;;3.33;;
11771;SDS011;12556;55.748;13.194;2023-05-10T05:03:38;5.13;;;3.73;;
11771;SDS011;12556;55.748;13.194;2023-05-10T05:06:06;6.90;;;4.00;;
11771;SDS011;12556;55.748;13.194;2023-05-10T05:08:33;7.47;;;3.67;;
11771;SDS011;12556;55.748;13.194;2023-05-10T05:11:01;5.63;;;3.53;;
11771;SDS011;12556;55.748;13.194;2023-05-10T05:13:28;7.10;;;3.67;;
11771;SDS011;12556;55.748;13.194;2023-05-10T05:15:55;7.87;;;3.63;;
11771;SDS011;12556;55.748;13.194;2023-05-10T05:18:22;8.37;;;3.87;;
11771;SDS011;12556;55.748;13.194;2023-05-10T05:20:49;7.67;;;4.73;;
11771;SDS011;12556;55.748;13.194;2023-05-10T05:23:16;5.80;;;3.63;;
11771;SDS011;12556;55.748;13.194;2023-05-10T05:25:45;5.60;;;3.97;;
11771;SDS011;12556;55.748;13.194;2023-05-10T05:28:13;5.93;;;3.57;;
11771;SDS011;12556;55.748;13.194;2023-05-10T05:30:40;7.77;;;4.00;;
11771;SDS011;12556;55.748;13.194;2023-05-10T05:33:07;9.37;;;4.00;;
11771;SDS011;12556;55.748;13.194;2023-05-10T05:35:34;5.50;;;3.33;;
11771;SDS011;12556;55.748;13.194;2023-05-10T05:38:01;5.67;;;3.60;;
11771;SDS011;12556;55.748;13.194;2023-05-10T05:40:28;7.00;;;4.00;;
11771;SDS011;12556;55.748;13.194;2023-05-10T05:42:55;5.30;;;3.60;;
11771;SDS011;12556;55.748;13.194;2023-05-10T05:45:24;5.43;;;4.07;;
11771;SDS011;12556;55.748;13.194;2023-05-10T05:47:50;6.97;;;3.87;;
11771;SDS011;12556;55.748;13.194;2023-05-10T05:50:17;7.03;;;4.53;;
11771;SDS011;12556;55.748;13.194;2023-05-10T05:52:44;5.07;;;3.60;;
11771;SDS011;12556;55.748;13.194;2023-05-10T05:55:11;5.83;;;4.17;;
11771;SDS011;12556;55.748;13.194;2023-05-10T05:57:38;5.17;;;3.67;;
11771;SDS011;12556;55.748;13.194;2023-05-10T06:00:06;5.97;;;3.90;;
11771;SDS011;12556;55.748;13.194;2023-05-10T06:02:35;7.67;;;3.37;;
11771;SDS011;12556;55.748;13.194;2023-05-10T06:05:02;4.63;;;3.63;;
11771;SDS011;12556;55.748;13.194;2023-05-10T06:07:29;7.87;;;4.23;;
11771;SDS011;12556;55.748;13.194;2023-05-10T06:09:56;3.93;;;3.20;;
11771;SDS011;12556;55.748;13.194;2023-05-10T06:12:23;4.60;;;3.77;;
11771;SDS011;12556;55.748;13.194;2023-05-10T06:14:50;6.40;;;4.00;;
11771;SDS011;12556;55.748;13.194;2023-05-10T06:17:17;4.20;;;3.30;;
11771;SDS011;12556;55.748;13.194;2023-05-10T06:19:45;4.40;;;3.53;;
11771;SDS011;12556;55.748;13.194;2023-05-10T06:22:12;3.83;;;3.30;;
11771;SDS011;12556;55.748;13.194;2023-05-10T06:24:39;6.83;;;3.93;;
11771;SDS011;12556;55.748;13.194;2023-05-10T06:27:06;5.13;;;3.80;;
11771;SDS011;12556;55.748;13.194;2023-05-10T06:29:33;4.87;;;3.60;;
11771;SDS011;12556;55.748;13.194;2023-05-10T06:32:00;4.70;;;4.10;;
11771;SDS011;12556;55.748;13.194;2023-05-10T06:34:27;6.07;;;3.67;;
11771;SDS011;12556;55.748;13.194;2023-05-10T06:36:56;7.93;;;4.10;;
11771;SDS011;12556;55.748;13.194;2023-05-10T06:39:23;5.43;;;3.80;;
11771;SDS011;12556;55.748;13.194;2023-05-10T06:41:50;7.33;;;3.90;;
11771;SDS011;12556;55.748;13.194;2023-05-10T06:44:17;8.07;;;3.93;;
11771;SDS011;12556;55.748;13.194;2023-05-10T06:46:44;5.90;;;4.03;;
11771;SDS011;12556;55.748;13.194;2023-05-10T06:49:11;8.37;;;3.73;;
11771;SDS011;12556;55.748;13.194;2023-05-10T06:51:38;8.93;;;4.57;;
11771;SDS011;12556;55.748;13.194;2023-05-10T06:54:06;7.03;;;3.97;;
11771;SDS011;12556;55.748;13.194;2023-05-10T06:56:33;9.93;;;3.73;;
11771;SDS011;12556;55.748;13.194;2023-05-10T06:59:00;4.93;;;4.03;;
11771;SDS011;12556;55.748;13.194;2023-05-10T07:01:28;5.43;;;3.70;;
11771;SDS011;12556;55.748;13.194;2023-05-10T07:03:55;7.43;;;3.80;;
11771;SDS011;12556;55.748;13.194;2023-05-10T07:06:22;6.07;;;3.63;;
11771;SDS011;12556;55.748;13.194;2023-05-10T07:08:49;7.17;;;4.10;;
11771;SDS011;12556;55.748;13.194;2023-05-10T07:11:17;5.63;;;3.70;;
11771;SDS011;12556;55.748;13.194;2023-05-10T07:13:44;9.47;;;3.83;;
11771;SDS011;12556;55.748;13.194;2023-05-10T07:16:11;5.27;;;3.80;;
11771;SDS011;12556;55.748;13.194;2023-05-10T07:18:38;4.83;;;4.20;;
11771;SDS011;12556;55.748;13.194;2023-05-10T07:21:05;8.23;;;4.20;;
11771;SDS011;12556;55.748;13.194;2023-05-10T07:23:32;4.97;;;3.60;;
11771;SDS011;12556;55.748;13.194;2023-05-10T07:25:59;4.17;;;3.77;;
11771;SDS011;12556;55.748;13.194;2023-05-10T07:28:28;6.40;;;4.10;;
11771;SDS011;12556;55.748;13.194;2023-05-10T07:30:55;7.23;;;3.87;;
11771;SDS011;12556;55.748;13.194;2023-05-10T07:33:22;5.47;;;4.30;;
11771;SDS011;12556;55.748;13.194;2023-05-10T07:35:49;8.10;;;3.73;;
11771;SDS011;12556;55.748;13.194;2023-05-10T07:38:17;5.50;;;3.80;;
11771;SDS011;12556;55.748;13.194;2023-05-10T07:40:43;9.05;;;3.80;;
11771;SDS011;12556;55.748;13.194;2023-05-10T07:43:11;7.30;;;3.80;;
11771;SDS011;12556;55.748;13.194;2023-05-10T07:45:39;6.03;;;3.50;;
11771;SDS011;12556;55.748;13.194;2023-05-10T07:48:06;6.53;;;3.90;;
11771;SDS011;12556;55.748;13.194;2023-05-10T07:50:33;5.83;;;3.77;;
11771;SDS011;12556;55.748;13.194;2023-05-10T07:53:00;5.03;;;3.70;;
11771;SDS011;12556;55.748;13.194;2023-05-10T07:55:27;7.93;;;3.80;;
11771;SDS011;12556;55.748;13.194;2023-05-10T07:57:54;7.93;;;4.10;;
11771;SDS011;12556;55.748;13.194;2023-05-10T08:00:21;4.45;;;3.88;;
11771;SDS011;12556;55.748;13.194;2023-05-10T08:02:49;5.53;;;3.83;;
11771;SDS011;12556;55.748;13.194;2023-05-10T08:05:16;6.68;;;3.83;;
11771;SDS011;12556;55.748;13.194;2023-05-10T08:07:43;6.00;;;3.83;;
11771;SDS011;12556;55.748;13.194;2023-05-10T08:10:10;7.20;;;3.85;;
11771;SDS011;12556;55.748;13.194;2023-05-10T08:12:37;6.97;;;4.13;;
11771;SDS011;12556;55.748;13.194;2023-05-10T08:15:05;6.47;;;4.00;;
11771;SDS011;12556;55.748;13.194;2023-05-10T08:17:32;7.05;;;3.78;;
11771;SDS011;12556;55.748;13.194;2023-05-10T08:20:01;5.35;;;3.72;;
11771;SDS011;12556;55.748;13.194;2023-05-10T08:22:28;8.50;;;4.18;;
11771;SDS011;12556;55.748;13.194;2023-05-10T08:24:55;6.80;;;3.70;;
11771;SDS011;12556;55.748;13.194;2023-05-10T08:27:22;7.30;;;3.85;;
11771;SDS011;12556;55.748;13.194;2023-05-10T08:29:49;9.02;;;4.10;;
11771;SDS011;12556;55.748;13.194;2023-05-10T08:32:16;5.05;;;4.10;;
11771;SDS011;12556;55.748;13.194;2023-05-10T08:34:42;4.97;;;3.78;;
11771;SDS011;12556;55.748;13.194;2023-05-10T08:37:11;9.40;;;3.83;;
11771;SDS011;12556;55.748;13.194;2023-05-10T08:39:38;7.05;;;4.13;;
11771;SDS011;12556;55.748;13.194;2023-05-10T08:42:05;4.15;;;3.45;;
11771;SDS011;12556;55.748;13.194;2023-05-10T08:44:34;7.97;;;4.43;;
11771;SDS011;12556;55.748;13.194;2023-05-10T08:47:04;8.85;;;3.92;;
11771;SDS011;12556;55.748;13.194;2023-05-10T08:49:32;6.97;;;3.60;;
11771;SDS011;12556;55.748;13.194;2023-05-10T08:52:01;5.22;;;3.70;;
11771;SDS011;12556;55.748;13.194;2023-05-10T08:54:32;6.60;;;4.10;;
11771;SDS011;12556;55.748;13.194;2023-05-10T08:57:00;7.40;;;3.30;;
11771;SDS011;12556;55.748;13.194;2023-05-10T08:59:28;6.95;;;3.70;;
11771;SDS011;12556;55.748;13.194;2023-05-10T09:01:55;3.92;;;3.53;;
11771;SDS011;12556;55.748;13.194;2023-05-10T09:04:25;4.43;;;4.00;;
11771;SDS011;12556;55.748;13.194;2023-05-10T09:06:52;7.97;;;4.22;;
11771;SDS011;12556;55.748;13.194;2023-05-10T09:09:19;5.93;;;3.53;;
11771;SDS011;12556;55.748;13.194;2023-05-10T09:11:49;3.63;;;3.20;;
11771;SDS011;12556;55.748;13.194;2023-05-10T09:14:16;4.18;;;3.20;;
11771;SDS011;12556;55.748;13.194;2023-05-10T09:16:43;4.18;;;3.70;;
11771;SDS011;12556;55.748;13.194;2023-05-10T09:19:10;4.03;;;3.63;;
11771;SDS011;12556;55.748;13.194;2023-05-10T09:21:38;6.65;;;3.67;;
11771;SDS011;12556;55.748;13.194;2023-05-10T09:24:05;10.02;;;3.97;;
11771;SDS011;12556;55.748;13.194;2023-05-10T09:26:33;6.88;;;3.40;;
11771;SDS011;12556;55.748;13.194;2023-05-10T09:29:03;6.18;;;3.72;;
11771;SDS011;12556;55.748;13.194;2023-05-10T09:31:46;9.27;;;3.05;;
11771;SDS011;12556;55.748;13.194;2023-05-10T09:34:16;3.17;;;2.88;;
11771;SDS011;12556;55.748;13.194;2023-05-10T09:36:50;9.50;;;3.65;;
11771;SDS011;12556;55.748;13.194;2023-05-10T09:39:18;7.00;;;3.13;;
11771;SDS011;12556;55.748;13.194;2023-05-10T09:41:46;5.00;;;3.60;;
11771;SDS011;12556;55.748;13.194;2023-05-10T09:44:17;6.95;;;4.10;;
11771;SDS011;12556;55.748;13.194;2023-05-10T09:46:49;3.78;;;3.45;;
11771;SDS011;12556;55.748;13.194;2023-05-10T09:49:17;4.65;;;3.40;;
11771;SDS011;12556;55.748;13.194;2023-05-10T09:51:45;3.90;;;2.88;;
11771;SDS011;12556;55.748;13.194;2023-05-10T09:54:12;4.78;;;3.15;;
11771;SDS011;12556;55.748;13.194;2023-05-10T09:56:40;4.88;;;3.70;;
11771;SDS011;12556;55.748;13.194;2023-05-10T09:59:09;6.93;;;3.30;;
11771;SDS011;12556;55.748;13.194;2023-05-10T10:01:38;5.05;;;3.15;;
11771;SDS011;12556;55.748;13.194;2023-05-10T10:04:06;4.28;;;3.30;;
11771;SDS011;12556;55.748;13.194;2023-05-10T10:06:36;4.32;;;3.15;;
11771;SDS011;12556;55.748;13.194;2023-05-10T10:09:03;5.13;;;3.45;;
11771;SDS011;12556;55.748;13.194;2023-05-10T10:11:33;3.53;;;3.05;;
11771;SDS011;12556;55.748;13.194;2023-05-10T10:14:01;3.40;;;3.08;;
11771;SDS011;12556;55.748;13.194;2023-05-10T10:16:28;4.72;;;3.05;;
11771;SDS011;12556;55.748;13.194;2023-05-10T10:18:57;3.60;;;3.13;;
11771;SDS011;12556;55.748;13.194;2023-05-10T10:21:24;9.57;;;2.97;;
11771;SDS011;12556;55.748;13.194;2023-05-10T10:23:52;4.65;;;2.40;;
11771;SDS011;12556;55.748;13.194;2023-05-10T10:26:19;4.53;;;3.00;;
11771;SDS011;12556;55.748;13.194;2023-05-10T10:28:49;4.72;;;2.83;;
11771;SDS011;12556;55.748;13.194;2023-05-10T10:31:24;3.47;;;2.85;;
11771;SDS011;12556;55.748;13.194;2023-05-10T10:34:01;4.15;;;3.20;;
11771;SDS011;12556;55.748;13.194;2023-05-10T10:36:32;5.28;;;2.90;;
11771;SDS011;12556;55.748;13.194;2023-05-10T10:39:02;3.35;;;2.80;;
11771;SDS011;12556;55.748;13.194;2023-05-10T10:41:36;7.03;;;3.20;;
11771;SDS011;12556;55.748;13.194;2023-05-10T10:50:05;4.80;;;3.20;;
11771;SDS011;12556;55.748;13.194;2023-05-10T10:52:33;3.60;;;2.80;;
11771;SDS011;12556;55.748;13.194;2023-05-10T10:55:02;4.05;;;2.90;;
11771;SDS011;12556;55.748;13.194;2023-05-10T10:57:31;4.60;;;2.90;;
11771;SDS011;12556;55.748;13.194;2023-05-10T11:00:18;2.85;;;2.60;;
11771;SDS011;12556;55.748;13.194;2023-05-10T11:02:48;4.75;;;2.53;;
11771;SDS011;12556;55.748;13.194;2023-05-10T11:08:13;3.67;;;2.75;;
11771;SDS011;12556;55.748;13.194;2023-05-10T11:11:01;6.15;;;2.97;;
11771;SDS011;12556;55.748;13.194;2023-05-10T11:13:32;5.78;;;2.50;;
11771;SDS011;12556;55.748;13.194;2023-05-10T11:16:12;4.85;;;2.50;;
11771;SDS011;12556;55.748;13.194;2023-05-10T11:18:53;7.22;;;2.80;;
11771;SDS011;12556;55.748;13.194;2023-05-10T11:21:25;5.90;;;2.88;;
11771;SDS011;12556;55.748;13.194;2023-05-10T11:23:52;7.25;;;2.60;;
11771;SDS011;12556;55.748;13.194;2023-05-10T11:26:22;4.80;;;2.25;;
11771;SDS011;12556;55.748;13.194;2023-05-10T11:28:51;8.43;;;3.33;;
11771;SDS011;12556;55.748;13.194;2023-05-10T11:31:20;3.10;;;2.20;;
11771;SDS011;12556;55.748;13.194;2023-05-10T11:33:49;3.92;;;2.25;;
11771;SDS011;12556;55.748;13.194;2023-05-10T11:36:18;4.82;;;2.65;;
11771;SDS011;12556;55.748;13.194;2023-05-10T11:38:47;4.05;;;2.25;;
11771;SDS011;12556;55.748;13.194;2023-05-10T11:41:16;4.65;;;2.30;;
11771;SDS011;12556;55.748;13.194;2023-05-10T11:43:47;4.65;;;2.10;;
11771;SDS011;12556;55.748;13.194;2023-05-10T11:46:17;2.35;;;2.15;;
11771;SDS011;12556;55.748;13.194;2023-05-10T11:48:46;5.65;;;2.65;;
11771;SDS011;12556;55.748;13.194;2023-05-10T11:51:15;5.32;;;2.25;;
11771;SDS011;12556;55.748;13.194;2023-05-10T11:53:45;2.47;;;1.98;;
11771;SDS011;12556;55.748;13.194;2023-05-10T11:56:15;4.07;;;2.42;;
11771;SDS011;12556;55.748;13.194;2023-05-10T11:58:42;7.30;;;2.13;;
11771;SDS011;12556;55.748;13.194;2023-05-10T12:01:10;5.60;;;2.55;;
11771;SDS011;12556;55.748;13.194;2023-05-10T12:03:37;4.13;;;2.10;;
11771;SDS011;12556;55.748;13.194;2023-05-10T12:06:06;5.18;;;2.13;;
11771;SDS011;12556;55.748;13.194;2023-05-10T12:08:33;3.92;;;2.20;;
11771;SDS011;12556;55.748;13.194;2023-05-10T12:11:05;4.70;;;2.10;;
11771;SDS011;12556;55.748;13.194;2023-05-10T12:13:37;3.25;;;2.22;;
11771;SDS011;12556;55.748;13.194;2023-05-10T12:16:15;4.65;;;2.70;;
11771;SDS011;12556;55.748;13.194;2023-05-10T12:18:42;2.75;;;2.35;;
11771;SDS011;12556;55.748;13.194;2023-05-10T12:21:10;7.28;;;2.60;;
11771;SDS011;12556;55.748;13.194;2023-05-10T12:23:37;4.00;;;2.22;;
11771;SDS011;12556;55.748;13.194;2023-05-10T12:26:06;6.03;;;2.92;;
11771;SDS011;12556;55.748;13.194;2023-05-10T12:28:34;4.43;;;2.25;;
11771;SDS011;12556;55.748;13.194;2023-05-10T12:31:01;2.92;;;2.20;;
11771;SDS011;12556;55.748;13.194;2023-05-10T12:33:35;2.97;;;2.38;;
11771;SDS011;12556;55.748;13.194;2023-05-10T12:36:05;4.05;;;2.03;;
11771;SDS011;12556;55.748;13.194;2023-05-10T12:38:33;2.30;;;2.10;;
11771;SDS011;12556;55.748;13.194;2023-05-10T12:41:03;3.55;;;2.17;;
11771;SDS011;12556;55.748;13.194;2023-05-10T12:43:32;3.83;;;2.30;;
11771;SDS011;12556;55.748;13.194;2023-05-10T12:46:04;3.00;;;1.90;;
11771;SDS011;12556;55.748;13.194;2023-05-10T12:48:31;3.38;;;2.28;;
11771;SDS011;12556;55.748;13.194;2023-05-10T12:51:00;3.53;;;2.35;;
11771;SDS011;12556;55.748;13.194;2023-05-10T12:53:27;2.58;;;2.38;;
11771;SDS011;12556;55.748;13.194;2023-05-10T12:55:54;4.80;;;2.33;;
11771;SDS011;12556;55.748;13.194;2023-05-10T12:58:22;3.28;;;2.30;;
11771;SDS011;12556;55.748;13.194;2023-05-10T13:00:49;3.40;;;2.25;;
11771;SDS011;12556;55.748;13.194;2023-05-10T13:03:17;5.57;;;2.63;;
11771;SDS011;12556;55.748;13.194;2023-05-10T13:05:44;2.95;;;2.10;;
11771;SDS011;12556;55.748;13.194;2023-05-10T13:08:12;4.00;;;2.40;;
11771;SDS011;12556;55.748;13.194;2023-05-10T13:10:39;4.47;;;2.17;;
11771;SDS011;12556;55.748;13.194;2023-05-10T13:13:06;5.70;;;2.40;;
11771;SDS011;12556;55.748;13.194;2023-05-10T13:15:34;5.28;;;2.40;;
11771;SDS011;12556;55.748;13.194;2023-05-10T13:18:02;4.45;;;2.58;;
11771;SDS011;12556;55.748;13.194;2023-05-10T13:20:29;3.47;;;2.55;;
11771;SDS011;12556;55.748;13.194;2023-05-10T13:22:56;6.53;;;2.80;;
11771;SDS011;12556;55.748;13.194;2023-05-10T13:25:24;5.55;;;2.58;;
11771;SDS011;12556;55.748;13.194;2023-05-10T13:27:51;3.80;;;2.45;;
11771;SDS011;12556;55.748;13.194;2023-05-10T13:30:18;4.80;;;2.53;;
11771;SDS011;12556;55.748;13.194;2023-05-10T13:32:46;2.42;;;1.90;;
11771;SDS011;12556;55.748;13.194;2023-05-10T13:35:13;5.30;;;2.10;;
11771;SDS011;12556;55.748;13.194;2023-05-10T13:37:40;2.58;;;2.38;;
11771;SDS011;12556;55.748;13.194;2023-05-10T13:40:08;4.82;;;2.83;;
11771;SDS011;12556;55.748;13.194;2023-05-10T13:42:35;4.60;;;2.30;;
11771;SDS011;12556;55.748;13.194;2023-05-10T13:45:02;4.35;;;2.30;;
11771;SDS011;12556;55.748;13.194;2023-05-10T13:47:30;6.20;;;2.53;;
11771;SDS011;12556;55.748;13.194;2023-05-10T13:49:58;2.72;;;2.10;;
11771;SDS011;12556;55.748;13.194;2023-05-10T13:52:25;3.88;;;2.25;;
11771;SDS011;12556;55.748;13.194;2023-05-10T13:54:52;3.15;;;2.47;;
11771;SDS011;12556;55.748;13.194;2023-05-10T13:57:21;3.42;;;2.30;;
11771;SDS011;12556;55.748;13.194;2023-05-10T13:59:48;4.45;;;2.40;;
11771;SDS011;12556;55.748;13.194;2023-05-10T14:02:15;4.57;;;2.20;;
11771;SDS011;12556;55.748;13.194;2023-05-10T14:04:42;4.90;;;2.65;;
11771;SDS011;12556;55.748;13.194;2023-05-10T14:07:11;3.65;;;2.40;;
11771;SDS011;12556;55.748;13.194;2023-05-10T14:09:38;4.05;;;2.45;;
11771;SDS011;12556;55.748;13.194;2023-05-10T14:12:05;2.92;;;2.50;;
11771;SDS011;12556;55.748;13.194;2023-05-10T14:14:32;4.10;;;2.33;;
11771;SDS011;12556;55.748;13.194;2023-05-10T14:16:59;2.50;;;2.30;;
11771;SDS011;12556;55.748;13.194;2023-05-10T14:19:26;4.30;;;2.65;;
11771;SDS011;12556;55.748;13.194;2023-05-10T14:21:55;6.32;;;2.42;;
11771;SDS011;12556;55.748;13.194;2023-05-10T14:24:24;3.78;;;2.15;;
11771;SDS011;12556;55.748;13.194;2023-05-10T14:26:51;3.42;;;2.35;;
11771;SDS011;12556;55.748;13.194;2023-05-10T14:29:19;2.75;;;2.17;;
11771;SDS011;12556;55.748;13.194;2023-05-10T14:31:46;5.22;;;2.30;;
11771;SDS011;12556;55.748;13.194;2023-05-10T14:34:12;5.30;;;2.40;;
11771;SDS011;12556;55.748;13.194;2023-05-10T14:36:40;4.15;;;2.20;;
11771;SDS011;12556;55.748;13.194;2023-05-10T14:39:06;3.67;;;2.60;;
11771;SDS011;12556;55.748;13.194;2023-05-10T14:41:36;9.50;;;2.35;;
11771;SDS011;12556;55.748;13.194;2023-05-10T14:44:05;5.32;;;2.22;;
11771;SDS011;12556;55.748;13.194;2023-05-10T14:46:32;8.13;;;2.95;;
11771;SDS011;12556;55.748;13.194;2023-05-10T14:49:00;6.35;;;2.00;;
11771;SDS011;12556;55.748;13.194;2023-05-10T14:51:27;3.50;;;2.40;;